CYDF/YDF METAR and TAF weather

Enter ICAO airport designator
Station Type Date Time Source
CYDF METAR 2024/04/16 12:00 UTC NOAA

CYDF 161200Z 25003KT 15SM FEW003 SCT012 OVC026 06/05 A2993 RMK SF1SC3SC4 SLP137


Station Type Date Time Source
CYDF Decoded METAR 2024/04/16 12:00 UTC NOAA

Deer Lake, Nfld., Canada (CYDF) 49-13N 057-24W 22M
Apr 16, 2024 - 08:00 AM EDT / 2024.04.16 1200 UTC
Wind: from the WSW (250 degrees) at 3 MPH (3 KT):0
Visibility: 15 mile(s):0
Sky conditions: overcast
Temperature: 42 F (6 C)
Dew Point: 41 F (5 C)
Relative Humidity: 93%
Pressure (altimeter): 29.93 in. Hg (1013 hPa)
ob: CYDF 161200Z 25003KT 15SM FEW003 SCT012 OVC026 06/05 A2993 RMK SF1SC3SC4 SLP137
cycle: 12

Station Type Date Time Source
CYDF TAF 2024/04/16 08:54 UTC NOAA